createdAt,value
2022-10-30T00:04:34.090Z,3
2022-10-30T00:09:46.132Z,3
2022-10-30T00:14:58.012Z,3
2022-10-30T00:20:09.897Z,3
2022-10-30T00:25:21.910Z,3
2022-10-30T00:30:33.579Z,3
2022-10-30T00:35:48.375Z,3
2022-10-30T00:40:59.158Z,3
2022-10-30T00:46:10.649Z,3
2022-10-30T00:51:22.638Z,3
2022-10-30T00:56:34.661Z,2
2022-10-30T01:01:47.243Z,2
2022-10-30T01:06:58.808Z,2
2022-10-30T01:12:10.612Z,2
2022-10-30T01:17:22.498Z,2
2022-10-30T01:22:34.309Z,2
2022-10-30T01:27:46.172Z,2
2022-10-30T01:32:59.773Z,2
2022-10-30T01:38:11.369Z,2
2022-10-30T01:43:23.313Z,2
2022-10-30T01:48:35.039Z,2
2022-10-30T01:53:46.839Z,2
2022-10-30T01:58:58.652Z,2
2022-10-30T02:04:10.511Z,2
2022-10-30T02:09:22.339Z,2
2022-10-30T02:14:34.323Z,2
2022-10-30T02:24:57.979Z,2
2022-10-30T02:30:09.729Z,2
2022-10-30T02:35:21.321Z,2
2022-10-30T02:40:33.023Z,2
2022-10-30T02:45:44.796Z,2
2022-10-30T02:50:56.501Z,2
2022-10-30T02:56:08.259Z,2
2022-10-30T03:01:21.020Z,2
2022-10-30T03:06:32.916Z,2
2022-10-30T03:11:44.610Z,2
2022-10-30T03:16:56.383Z,2
2022-10-30T03:22:08.180Z,2
2022-10-30T03:27:19.940Z,2
2022-10-30T03:32:31.856Z,2
2022-10-30T03:37:43.630Z,3
2022-10-30T03:42:56.853Z,3
2022-10-30T03:48:08.625Z,3
2022-10-30T03:53:20.169Z,3
2022-10-30T03:58:32.011Z,3
2022-10-30T04:03:44.045Z,3
2022-10-30T04:08:55.660Z,3
2022-10-30T04:14:07.520Z,3
2022-10-30T04:19:19.624Z,3
2022-10-30T04:24:31.340Z,3
2022-10-30T04:29:42.869Z,3
2022-10-30T04:34:54.786Z,3
2022-10-30T04:40:06.610Z,3
2022-10-30T04:45:18.317Z,3
2022-10-30T04:50:30.263Z,3
2022-10-30T04:55:41.779Z,3
2022-10-30T05:01:02.893Z,3
2022-10-30T05:06:18.213Z,3
2022-10-30T05:11:29.852Z,3
2022-10-30T05:16:41.683Z,3
2022-10-30T05:21:53.466Z,3
2022-10-30T05:27:05.438Z,3
2022-10-30T05:32:17.282Z,3
2022-10-30T05:37:28.994Z,3
2022-10-30T05:42:40.676Z,3
2022-10-30T05:47:52.202Z,3
2022-10-30T05:53:04.292Z,3
2022-10-30T05:58:15.995Z,3
2022-10-30T06:03:27.752Z,3
2022-10-30T06:08:39.671Z,3
2022-10-30T06:13:51.326Z,3
2022-10-30T06:19:02.993Z,3
2022-10-30T06:24:14.929Z,3
2022-10-30T06:29:26.747Z,3
2022-10-30T06:34:38.560Z,3
2022-10-30T06:40:00.652Z,3
2022-10-30T06:45:12.301Z,3
2022-10-30T06:50:24.173Z,3
2022-10-30T06:55:36.087Z,3
2022-10-30T07:05:59.585Z,3
2022-10-30T07:11:11.629Z,3
2022-10-30T07:16:23.390Z,3
2022-10-30T07:21:35.379Z,3
2022-10-30T07:32:04.540Z,3
2022-10-30T07:37:18.836Z,3
2022-10-30T07:42:31.081Z,2
2022-10-30T07:47:42.706Z,2
2022-10-30T07:52:54.683Z,2
2022-10-30T07:58:06.491Z,2
2022-10-30T08:03:18.419Z,2
2022-10-30T08:08:30.428Z,2
2022-10-30T08:13:42.594Z,1
2022-10-30T08:18:54.661Z,1
2022-10-30T08:24:06.880Z,2
2022-10-30T08:29:18.947Z,2
2022-10-30T08:34:30.818Z,2
2022-10-30T08:39:43.046Z,2
2022-10-30T08:44:55.387Z,2
2022-10-30T08:50:07.502Z,2
2022-10-30T08:55:19.439Z,2
2022-10-30T09:00:31.599Z,2
2022-10-30T09:05:43.681Z,3
2022-10-30T09:10:55.702Z,3
2022-10-30T09:16:07.872Z,3
2022-10-30T09:21:19.976Z,4
2022-10-30T09:26:32.186Z,4
2022-10-30T09:31:51.832Z,4
2022-10-30T09:37:03.755Z,6
2022-10-30T09:42:15.996Z,6
2022-10-30T09:47:28.421Z,8
2022-10-30T09:52:42.697Z,10
2022-10-30T09:57:54.411Z,11
2022-10-30T10:03:06.652Z,12
2022-10-30T10:08:19.191Z,11
2022-10-30T10:13:32.387Z,12
2022-10-30T10:18:44.526Z,13
2022-10-30T10:23:56.949Z,14
2022-10-30T10:29:09.317Z,16
2022-10-30T10:34:21.721Z,16
2022-10-30T10:39:33.947Z,18
2022-10-30T10:44:46.379Z,18
2022-10-30T10:49:58.668Z,19
2022-10-30T10:55:11.098Z,20
2022-10-30T11:00:23.606Z,22
2022-10-30T11:05:36.863Z,23
2022-10-30T11:10:52.520Z,32
2022-10-30T11:16:08.101Z,78
2022-10-30T11:21:22.876Z,71
2022-10-30T11:37:00.204Z,61
2022-10-30T11:42:13.001Z,62
2022-10-30T11:47:26.543Z,58
2022-10-30T11:52:39.845Z,54
2022-10-30T11:57:52.598Z,58
2022-10-30T12:03:05.227Z,55
2022-10-30T12:13:28.506Z,56
2022-10-30T12:18:41.210Z,54
2022-10-30T12:23:54.605Z,54
2022-10-30T12:34:18.116Z,53
2022-10-30T12:39:31.910Z,51
2022-10-30T12:49:55.237Z,49
2022-10-30T12:55:07.827Z,48
2022-10-30T13:00:20.122Z,47
2022-10-30T13:21:04.145Z,53
2022-10-30T13:26:16.439Z,53
2022-10-30T13:31:28.958Z,53
2022-10-30T13:41:51.910Z,53
2022-10-30T13:47:04.438Z,54
2022-10-30T14:23:17.151Z,71
2022-10-30T14:28:29.329Z,71
2022-10-30T14:33:41.720Z,72
2022-10-30T14:38:54.137Z,73
2022-10-30T14:44:06.549Z,74
2022-10-30T14:54:28.857Z,72
2022-10-30T14:59:40.957Z,71
2022-10-30T15:04:53.094Z,71
2022-10-30T15:15:15.319Z,72
2022-10-30T15:20:27.499Z,78
2022-10-30T15:30:49.854Z,76
2022-10-30T15:36:02.057Z,78
2022-10-30T15:41:14.346Z,80
2022-10-30T16:01:56.661Z,83
2022-10-30T16:12:18.713Z,86
2022-10-30T16:38:16.025Z,91
2022-10-30T16:43:27.132Z,91
2022-10-30T16:48:39.267Z,91
2022-10-30T16:53:51.325Z,92
2022-10-30T16:59:03.502Z,93
2022-10-30T17:04:16.069Z,94
2022-10-30T17:09:27.982Z,95
2022-10-30T17:25:01.877Z,97
2022-10-30T17:30:13.774Z,94
2022-10-30T17:35:25.724Z,88
2022-10-30T17:40:37.748Z,83
2022-10-30T17:45:51.617Z,75
2022-10-30T17:56:15.400Z,61
2022-10-30T18:01:52.114Z,57
2022-10-30T18:07:00.381Z,55
2022-10-30T18:12:12.373Z,52
2022-10-30T18:17:24.128Z,48
2022-10-30T18:22:35.947Z,45
2022-10-30T18:33:00.097Z,36
2022-10-30T18:38:11.960Z,36
2022-10-30T18:43:26.076Z,25
2022-10-30T18:48:37.612Z,29
2022-10-30T18:53:49.580Z,30
2022-10-30T18:59:03.472Z,28
2022-10-30T19:04:23.153Z,23
2022-10-30T19:09:32.865Z,21
2022-10-30T19:14:45.328Z,18
2022-10-30T19:20:16.829Z,12
2022-10-30T19:25:26.038Z,11
2022-10-30T19:30:37.763Z,11
2022-10-30T19:35:49.427Z,11
2022-10-30T19:41:01.502Z,11
2022-10-30T19:46:13.330Z,9
2022-10-30T19:51:25.156Z,9
2022-10-30T19:56:37.292Z,9
2022-10-30T20:01:49.593Z,7
2022-10-30T20:07:03.528Z,6
2022-10-30T20:12:14.860Z,6
2022-10-30T20:17:29.060Z,5
2022-10-30T20:22:43.033Z,3
2022-10-30T20:27:55.479Z,4
2022-10-30T20:33:07.095Z,3
2022-10-30T20:38:19.197Z,3
2022-10-30T20:43:31.195Z,3
2022-10-30T20:48:43.003Z,3
2022-10-30T20:53:54.798Z,2
2022-10-30T20:59:06.784Z,2
2022-10-30T21:04:18.924Z,2
2022-10-30T21:09:31.143Z,3
2022-10-30T21:14:43.033Z,3
2022-10-30T21:19:54.833Z,3
2022-10-30T21:25:06.659Z,3
2022-10-30T21:30:18.746Z,2
2022-10-30T21:35:30.686Z,2
2022-10-30T21:40:42.630Z,2
2022-10-30T21:45:54.511Z,2
2022-10-30T21:51:07.403Z,2
2022-10-30T21:56:19.092Z,2
2022-10-30T22:01:31.733Z,2
2022-10-30T22:06:43.533Z,2
2022-10-30T22:11:55.547Z,2
2022-10-30T22:17:07.359Z,2
2022-10-30T22:22:19.284Z,2
2022-10-30T22:27:31.128Z,2
2022-10-30T22:32:42.939Z,2
2022-10-30T22:37:54.677Z,2
2022-10-30T22:43:06.650Z,2
2022-10-30T22:48:18.330Z,2
2022-10-30T22:53:30.034Z,2
2022-10-30T22:58:41.869Z,2
2022-10-30T23:03:53.464Z,2
2022-10-30T23:09:04.927Z,2
2022-10-30T23:14:16.641Z,2
2022-10-30T23:19:28.376Z,2
2022-10-30T23:24:40.186Z,2
2022-10-30T23:29:52.512Z,2
2022-10-30T23:35:04.176Z,1
2022-10-30T23:40:15.854Z,1
2022-10-30T23:45:27.664Z,1
2022-10-30T23:50:39.537Z,1
2022-10-30T23:55:51.196Z,2
